ENKR/KKN METAR and TAF weather

Enter ICAO airport designator
Station Type Date Time Source
ENKR METAR 2020/01/21 18:20 UTC NOAA

ENKR 211820Z 26019KT 5000 -SHSN DRSN FEW007 BKN018 M04/M05 Q0977 RMK WIND 731FT 26031KT


Station Type Date Time Source
ENKR Decoded METAR 2020/01/21 18:20 UTC NOAA

Kirkenes Lufthavn, Norway (ENKR) 69-44N 029-54E 91M
Jan 21, 2020 - 01:20 PM EST / 2020.01.21 1820 UTC
Wind: from the W (260 degrees) at 22 MPH (19 KT):0
Visibility: 3 mile(s):0
Sky conditions: mostly cloudy
Weather: light snow showers; low drifting snow
Temperature: 24 F (-4 C)
Windchill: 8 F (-13 C):1
Dew Point: 23 F (-5 C)
Relative Humidity: 92%
Pressure (altimeter): 28.85 in. Hg (0977 hPa)
ob: ENKR 211820Z 26019KT 5000 -SHSN DRSN FEW007 BKN018 M04/M05 Q0977 RMK WIND 731FT 26031KT
cycle: 18

Station Type Date Time Source
ENKR TAF 2017/08/31 21:36 UTC NOAA

TAF TAF ENKR 312300Z 3121/0109 29005KT 9999 FEW020 SCT040

Example: see airport list